Time;durP1;ratioP1;P1;durP2;ratioP2;P2;SDS_P1;SDS_P2;PMS_P1;PMS_P2;Temp;Humidity;BMP_temperature;BMP_pressure;BME280_temperature;BME280_humidity;BME280_pressure;Samples;Min_cycle;Max_cycle;Signal;HPM_P1;HPM_P2
2023/01/01 00:00:25;;;;;;;13.00;10.97;;;10.70;99.90;;;;;;4979900;28;20452;-46
2023/01/01 00:02:53;;;;;;;11.00;9.53;;;10.70;99.90;;;;;;4997097;28;20625;-47
2023/01/01 00:05:23;;;;;;;10.67;9.57;;;10.70;99.90;;;;;;4996415;28;20825;-48
2023/01/01 00:07:52;;;;;;;12.50;10.30;;;10.70;99.90;;;;;;5001172;28;20504;-46
2023/01/01 00:10:28;;;;;;;13.10;11.17;;;10.70;99.90;;;;;;5004202;28;20835;-49
2023/01/01 00:12:57;;;;;;;13.33;9.83;;;10.70;99.90;;;;;;4996235;28;21040;-47
2023/01/01 00:15:27;;;;;;;12.37;10.70;;;10.70;99.90;;;;;;4990159;28;20456;-47
2023/01/01 00:17:56;;;;;;;13.50;9.30;;;10.70;99.90;;;;;;4995836;28;20535;-48
2023/01/01 00:20:26;;;;;;;10.70;9.17;;;10.70;99.90;;;;;;4996002;28;20847;-47
2023/01/01 00:23:02;;;;;;;10.03;9.00;;;10.70;99.90;;;;;;4982376;28;21009;-46
2023/01/01 00:25:31;;;;;;;9.30;8.33;;;10.70;99.90;;;;;;4986296;28;20465;-47
2023/01/01 00:28:00;;;;;;;10.70;9.60;;;10.70;99.90;;;;;;5004610;28;20477;-48
2023/01/01 00:30:28;;;;;;;11.13;9.63;;;10.70;99.90;;;;;;4995396;28;20510;-47
2023/01/01 00:32:57;;;;;;;10.00;9.00;;;10.70;99.90;;;;;;5005128;28;20985;-47
2023/01/01 00:35:27;;;;;;;8.70;7.90;;;10.70;99.90;;;;;;5015671;28;20516;-46
2023/01/01 00:37:56;;;;;;;8.60;7.73;;;10.70;99.90;;;;;;4995494;28;20512;-47
2023/01/01 00:40:24;;;;;;;11.50;9.47;;;10.70;99.90;;;;;;4990727;28;20515;-47
2023/01/01 00:42:53;;;;;;;10.07;7.67;;;10.70;99.90;;;;;;4996287;28;20476;-47
2023/01/01 00:45:21;;;;;;;10.30;9.03;;;10.70;99.90;;;;;;4987832;28;20449;-47
2023/01/01 00:47:52;;;;;;;9.10;8.20;;;10.70;99.90;;;;;;4982164;28;20489;-46
2023/01/01 00:50:21;;;;;;;9.47;8.57;;;10.70;99.90;;;;;;4990257;28;20444;-46
2023/01/01 00:52:51;;;;;;;8.77;7.87;;;10.70;99.90;;;;;;5007543;28;20475;-47
2023/01/01 00:55:23;;;;;;;8.90;7.57;;;10.70;99.90;;;;;;4986807;28;20546;-47
2023/01/01 00:57:51;;;;;;;11.00;9.30;;;10.70;99.90;;;;;;4989317;28;20556;-46
2023/01/01 01:00:20;;;;;;;9.00;8.10;;;10.70;99.90;;;;;;4985497;28;20535;-48
2023/01/01 01:02:48;;;;;;;9.30;7.80;;;10.70;99.90;;;;;;4997924;28;20492;-47
2023/01/01 01:05:17;;;;;;;8.53;7.23;;;10.70;99.90;;;;;;5000049;28;20436;-47
2023/01/01 01:07:45;;;;;;;8.77;7.87;;;10.70;99.90;;;;;;5016847;28;20476;-47
2023/01/01 01:10:15;;;;;;;8.07;7.27;;;10.70;99.90;;;;;;4992288;28;20464;-46
2023/01/01 01:12:44;;;;;;;9.23;8.23;;;10.70;99.90;;;;;;4984281;28;20534;-49
2023/01/01 01:15:15;;;;;;;9.40;8.37;;;10.70;99.90;;;;;;4987656;28;20457;-46
2023/01/01 01:17:44;;;;;;;8.50;7.13;;;10.70;99.90;;;;;;4990227;28;20471;-48
2023/01/01 01:20:13;;;;;;;7.40;6.70;;;10.70;99.90;;;;;;4995862;28;20464;-46
2023/01/01 01:23:01;;;;;;;8.70;7.53;;;10.70;99.90;;;;;;4986198;28;20480;-48
2023/01/01 01:25:50;;;;;;;8.60;7.77;;;10.70;99.90;;;;;;5001617;28;20452;-47
2023/01/01 01:28:37;;;;;;;10.43;7.23;;;10.70;99.90;;;;;;5000896;28;20467;-48
2023/01/01 01:31:34;;;;;;;6.50;5.80;;;10.70;99.90;;;;;;5005490;28;21053;-48
2023/01/01 01:34:21;;;;;;;7.90;7.10;;;10.70;99.90;;;;;;4987194;28;20460;-45
2023/01/01 01:37:14;;;;;;;8.43;6.93;;;10.70;99.90;;;;;;4993314;28;21168;-48
2023/01/01 01:40:01;;;;;;;8.10;6.30;;;10.70;99.90;;;;;;4988104;28;20444;-47
2023/01/01 01:42:51;;;;;;;7.97;6.10;;;10.70;99.90;;;;;;4988071;28;21027;-46
2023/01/01 01:45:38;;;;;;;7.57;5.30;;;10.70;99.90;;;;;;5002255;28;20558;-47
2023/01/01 01:48:26;;;;;;;8.40;6.30;;;10.70;99.90;;;;;;4985647;28;20502;-47
2023/01/01 01:51:17;;;;;;;8.57;7.20;;;10.70;99.90;;;;;;4985579;28;20447;-47
2023/01/01 01:54:08;;;;;;;7.80;6.97;;;10.70;99.90;;;;;;4986983;28;20596;-47
2023/01/01 01:57:00;;;;;;;7.20;6.47;;;10.70;99.90;;;;;;4999651;28;20469;-48
2023/01/01 01:59:52;;;;;;;7.33;6.63;;;10.70;99.90;;;;;;4986879;28;20583;-47
2023/01/01 02:02:45;;;;;;;7.60;5.63;;;10.70;99.90;;;;;;4985892;28;20530;-47
2023/01/01 02:05:34;;;;;;;7.30;5.63;;;10.70;99.90;;;;;;4999658;28;20422;-48
2023/01/01 02:08:21;;;;;;;7.13;6.43;;;10.70;99.90;;;;;;4987456;28;20559;-47
2023/01/01 02:11:12;;;;;;;8.00;6.13;;;10.70;99.90;;;;;;4983466;28;20453;-46
2023/01/01 02:14:06;;;;;;;7.70;6.00;;;10.70;99.90;;;;;;4995220;28;20436;-47
2023/01/01 02:17:02;;;;;;;6.83;5.80;;;10.70;99.90;;;;;;5001860;28;20864;-47
2023/01/01 02:20:05;;;;;;;6.73;6.00;;;10.70;99.90;;;;;;4997948;28;20452;-47
2023/01/01 02:23:15;;;;;;;7.50;5.90;;;10.70;99.90;;;;;;4983366;28;20480;-47
2023/01/01 02:26:17;;;;;;;7.73;6.30;;;10.70;99.90;;;;;;4983274;28;20453;-47
2023/01/01 02:29:16;;;;;;;7.47;6.47;;;10.70;99.90;;;;;;4992178;28;21016;-47
2023/01/01 02:32:06;;;;;;;6.50;5.30;;;10.70;99.90;;;;;;4999046;28;20971;-47
2023/01/01 02:35:33;;;;;;;5.60;4.90;;;10.70;99.90;;;;;;4991502;28;20500;-47
2023/01/01 02:38:13;;;;;;;6.40;5.30;;;10.70;99.90;;;;;;5000030;28;20587;-46
2023/01/01 02:41:03;;;;;;;6.50;5.37;;;10.70;99.90;;;;;;4993560;28;20452;-48
2023/01/01 02:43:51;;;;;;;6.07;5.57;;;10.70;99.90;;;;;;4997891;28;20484;-47
2023/01/01 02:46:40;;;;;;;5.07;4.57;;;10.70;99.90;;;;;;4992287;28;20464;-47
2023/01/01 02:49:27;;;;;;;6.90;5.83;;;10.70;99.90;;;;;;4991764;28;20520;-48
2023/01/01 02:52:33;;;;;;;5.83;4.60;;;10.70;99.90;;;;;;4992305;28;20546;-46
2023/01/01 02:55:28;;;;;;;5.87;5.03;;;10.70;99.90;;;;;;4986984;28;20489;-46
2023/01/01 03:01:37;;;;;;;4.97;4.50;;;10.70;99.90;;;;;;4998929;28;20467;-47
2023/01/01 03:04:31;;;;;;;6.90;4.50;;;10.70;99.90;;;;;;4992133;28;20471;-47
2023/01/01 03:07:26;;;;;;;5.20;4.67;;;10.70;99.90;;;;;;4985543;28;20499;-47
2023/01/01 03:10:16;;;;;;;5.03;4.63;;;10.70;99.90;;;;;;4997189;28;20530;-48
2023/01/01 03:13:11;;;;;;;5.40;4.87;;;10.70;99.90;;;;;;4995049;28;20965;-47
2023/01/01 03:16:04;;;;;;;5.93;5.37;;;10.70;99.90;;;;;;5008266;28;20830;-48
2023/01/01 03:19:10;;;;;;;4.97;4.47;;;10.70;99.90;;;;;;4999022;28;20455;-47
2023/01/01 03:22:03;;;;;;;7.03;5.50;;;10.70;99.90;;;;;;5013216;28;20597;-47
2023/01/01 03:24:54;;;;;;;5.10;4.70;;;10.70;99.90;;;;;;4984346;28;20592;-46
2023/01/01 03:27:47;;;;;;;5.57;5.00;;;10.70;99.90;;;;;;4994076;28;20557;-46
2023/01/01 03:30:39;;;;;;;4.60;4.10;;;10.70;99.90;;;;;;5001196;28;20867;-47
2023/01/01 03:33:33;;;;;;;5.00;4.17;;;10.70;99.90;;;;;;5013430;28;20457;-47
2023/01/01 03:36:24;;;;;;;5.00;4.30;;;10.70;99.90;;;;;;4992913;28;20429;-47
2023/01/01 03:39:17;;;;;;;5.53;5.00;;;10.70;99.90;;;;;;4996019;28;20711;-47
2023/01/01 03:42:12;;;;;;;11.10;4.93;;;10.70;99.90;;;;;;4981992;28;20501;-47
2023/01/01 03:45:05;;;;;;;5.63;4.93;;;10.70;99.90;;;;;;4998488;28;20448;-48
2023/01/01 03:47:52;;;;;;;6.10;4.40;;;10.70;99.90;;;;;;4990354;28;20605;-48
2023/01/01 03:50:48;;;;;;;5.17;3.67;;;10.70;99.90;;;;;;4981713;28;20546;-47
2023/01/01 03:53:40;;;;;;;4.10;3.70;;;10.70;99.90;;;;;;5005306;28;20421;-47
2023/01/01 03:56:37;;;;;;;4.50;3.73;;;10.70;99.90;;;;;;5002485;28;20432;-47
2023/01/01 03:59:29;;;;;;;5.20;4.67;;;10.70;99.90;;;;;;4999838;28;20459;-47
2023/01/01 04:02:21;;;;;;;4.80;4.00;;;10.70;99.90;;;;;;5013179;28;20492;-49
2023/01/01 04:05:10;;;;;;;4.33;3.90;;;10.70;99.90;;;;;;5001797;28;20441;-47
2023/01/01 04:08:00;;;;;;;5.10;4.47;;;10.70;99.90;;;;;;5004477;28;20619;-47
2023/01/01 04:10:52;;;;;;;5.10;4.17;;;10.80;99.90;;;;;;5012354;28;20427;-46
2023/01/01 04:13:48;;;;;;;4.13;3.73;;;10.70;99.90;;;;;;4992687;28;21063;-48
2023/01/01 04:16:34;;;;;;;4.40;4.00;;;10.70;99.90;;;;;;4986549;28;20852;-46
2023/01/01 04:19:21;;;;;;;6.20;5.00;;;10.70;99.90;;;;;;5004702;28;20444;-47
2023/01/01 04:22:09;;;;;;;4.00;3.60;;;10.70;99.90;;;;;;5001190;28;20993;-46
2023/01/01 04:24:56;;;;;;;5.10;4.03;;;10.70;99.90;;;;;;4990114;28;21310;-47
2023/01/01 04:27:44;;;;;;;3.87;3.47;;;10.70;99.90;;;;;;4983433;28;21056;-47
2023/01/01 04:30:32;;;;;;;5.13;4.10;;;10.80;99.90;;;;;;4993203;28;21029;-47
2023/01/01 04:33:20;;;;;;;4.83;3.80;;;10.80;99.90;;;;;;4992198;28;20475;-48
2023/01/01 04:36:09;;;;;;;5.10;4.00;;;10.80;99.90;;;;;;5001196;28;20464;-47
2023/01/01 04:38:56;;;;;;;3.33;3.03;;;10.80;99.90;;;;;;4981424;28;20465;-47
2023/01/01 04:41:44;;;;;;;3.87;3.57;;;10.70;99.90;;;;;;4993753;28;20619;-47
2023/01/01 04:44:31;;;;;;;4.13;3.50;;;10.80;99.90;;;;;;4986066;28;21061;-47
2023/01/01 04:47:19;;;;;;;4.33;3.60;;;10.80;99.90;;;;;;4988451;28;20503;-47
2023/01/01 04:50:07;;;;;;;5.83;3.67;;;10.70;99.90;;;;;;4998841;28;20667;-48
2023/01/01 04:52:54;;;;;;;4.53;3.67;;;10.70;99.90;;;;;;5004559;28;20488;-46
2023/01/01 04:55:41;;;;;;;5.10;4.27;;;10.70;99.90;;;;;;4999105;28;20519;-47
2023/01/01 04:58:29;;;;;;;4.50;4.10;;;10.80;99.90;;;;;;4994434;28;20435;-47
2023/01/01 05:01:18;;;;;;;4.87;3.97;;;10.70;99.90;;;;;;5006041;28;20459;-48
2023/01/01 05:04:06;;;;;;;4.00;3.27;;;10.70;99.90;;;;;;4998441;28;20535;-48
2023/01/01 05:06:54;;;;;;;3.90;3.60;;;10.70;99.90;;;;;;5002296;28;21119;-47
2023/01/01 05:09:41;;;;;;;4.93;3.53;;;10.70;99.90;;;;;;4977650;28;20475;-47
2023/01/01 05:12:30;;;;;;;3.43;3.13;;;10.70;99.90;;;;;;4993063;28;20501;-45
2023/01/01 05:15:17;;;;;;;5.13;4.10;;;10.70;99.90;;;;;;4992435;28;20693;-47
2023/01/01 05:18:04;;;;;;;5.23;4.03;;;10.70;99.90;;;;;;4987454;28;20870;-46
2023/01/01 05:20:53;;;;;;;6.43;3.93;;;10.80;99.90;;;;;;5001160;28;20990;-47
2023/01/01 05:23:40;;;;;;;4.30;3.20;;;10.70;99.90;;;;;;4984673;28;20472;-46
2023/01/01 05:26:29;;;;;;;3.43;2.93;;;10.70;99.90;;;;;;4989095;28;20591;-46
2023/01/01 05:29:16;;;;;;;3.33;3.03;;;10.70;99.90;;;;;;4991662;28;20456;-47
2023/01/01 05:32:03;;;;;;;3.80;3.40;;;10.70;99.90;;;;;;4994909;28;20519;-47
2023/01/01 05:34:52;;;;;;;4.10;2.67;;;10.70;99.90;;;;;;4988811;28;20981;-48
2023/01/01 05:37:40;;;;;;;4.30;2.90;;;10.80;99.90;;;;;;5000217;28;21037;-48
2023/01/01 05:40:28;;;;;;;4.80;4.07;;;10.80;99.90;;;;;;4981230;28;21004;-46
2023/01/01 05:43:17;;;;;;;4.17;3.07;;;10.70;99.90;;;;;;4993968;28;20459;-48
2023/01/01 05:46:07;;;;;;;3.87;3.57;;;10.80;99.90;;;;;;4986571;28;20456;-48
2023/01/01 05:48:54;;;;;;;3.07;2.87;;;10.80;99.90;;;;;;4999422;28;20506;-47
2023/01/01 05:51:42;;;;;;;3.17;2.90;;;10.70;99.90;;;;;;4991535;28;20445;-47
2023/01/01 05:54:30;;;;;;;4.23;3.20;;;10.70;99.90;;;;;;4977596;28;20452;-49
2023/01/01 05:57:18;;;;;;;4.17;2.90;;;10.70;99.90;;;;;;4984948;28;20842;-47
2023/01/01 06:00:06;;;;;;;3.43;2.80;;;10.70;99.90;;;;;;4993821;28;20464;-47
2023/01/01 06:02:55;;;;;;;6.27;3.47;;;10.80;99.90;;;;;;5005271;28;20486;-49
2023/01/01 06:05:42;;;;;;;3.40;3.10;;;10.80;99.90;;;;;;4997639;28;20463;-47
2023/01/01 06:08:29;;;;;;;3.43;3.10;;;10.80;99.90;;;;;;4986868;28;20467;-47
2023/01/01 06:11:18;;;;;;;3.70;3.20;;;10.80;99.90;;;;;;5000586;28;20752;-47
2023/01/01 06:14:05;;;;;;;3.40;2.90;;;10.80;99.90;;;;;;4984979;28;20452;-48
2023/01/01 06:16:52;;;;;;;6.43;3.30;;;10.80;99.90;;;;;;4997368;28;21009;-47
2023/01/01 06:19:39;;;;;;;3.27;2.93;;;10.70;99.90;;;;;;4986976;28;20451;-48
2023/01/01 06:22:26;;;;;;;3.30;3.00;;;10.80;99.90;;;;;;4998967;28;20495;-46
2023/01/01 06:25:13;;;;;;;3.07;2.77;;;10.80;99.90;;;;;;4986484;28;20479;-47
2023/01/01 06:28:02;;;;;;;2.70;2.50;;;10.80;99.90;;;;;;4990586;28;20475;-48
2023/01/01 06:30:49;;;;;;;2.80;2.60;;;10.80;99.90;;;;;;4998228;28;20463;-48
2023/01/01 06:33:36;;;;;;;2.90;2.70;;;10.80;99.90;;;;;;4999910;28;20444;-48
2023/01/01 06:36:25;;;;;;;2.90;2.57;;;10.80;99.90;;;;;;4987519;28;20871;-47
2023/01/01 06:39:13;;;;;;;3.53;3.00;;;10.70;99.90;;;;;;4991723;28;20480;-47
2023/01/01 06:42:01;;;;;;;2.70;2.50;;;10.80;99.90;;;;;;4994407;28;20476;-46
2023/01/01 06:44:49;;;;;;;3.40;2.27;;;10.80;99.90;;;;;;4996120;28;21412;-47
2023/01/01 06:47:37;;;;;;;4.47;3.13;;;10.80;99.90;;;;;;4988614;28;20480;-46
2023/01/01 06:50:25;;;;;;;2.80;2.47;;;10.80;99.90;;;;;;5011946;28;20540;-47
2023/01/01 06:53:12;;;;;;;3.13;2.50;;;10.80;99.90;;;;;;5011658;28;20549;-46
2023/01/01 06:55:59;;;;;;;4.33;3.20;;;10.80;99.90;;;;;;5005426;28;20467;-48
2023/01/01 06:58:47;;;;;;;3.07;2.20;;;10.80;99.90;;;;;;4996208;28;20843;-47
2023/01/01 07:01:38;;;;;;;4.70;2.93;;;10.80;99.90;;;;;;5004082;28;20545;-48
2023/01/01 07:04:31;;;;;;;2.80;2.50;;;10.80;99.90;;;;;;4996750;28;20558;-47
2023/01/01 07:07:18;;;;;;;2.70;2.40;;;10.80;99.90;;;;;;4996382;28;20480;-47
2023/01/01 07:10:06;;;;;;;2.30;2.10;;;10.80;99.90;;;;;;4998993;28;20470;-48
2023/01/01 07:12:53;;;;;;;3.30;2.77;;;10.70;99.90;;;;;;5005729;28;20499;-47
2023/01/01 07:15:43;;;;;;;3.93;2.30;;;10.80;99.90;;;;;;4990349;28;20798;-47
2023/01/01 07:18:31;;;;;;;2.77;2.47;;;10.70;99.90;;;;;;4999781;28;20491;-47
2023/01/01 07:21:32;;;;;;;2.93;2.50;;;10.70;99.90;;;;;;4999077;28;20493;-49
2023/01/01 07:24:19;;;;;;;5.23;2.63;;;10.80;99.90;;;;;;5011869;28;20448;-46
2023/01/01 07:27:08;;;;;;;2.67;2.47;;;10.80;99.90;;;;;;4994769;28;20475;-47
2023/01/01 07:29:59;;;;;;;3.67;3.13;;;10.80;99.90;;;;;;5002701;28;20526;-47
2023/01/01 07:32:46;;;;;;;3.07;2.23;;;10.80;99.90;;;;;;4993297;28;20483;-47
2023/01/01 07:35:34;;;;;;;2.10;1.90;;;10.80;99.90;;;;;;5002564;28;20746;-46
2023/01/01 07:38:21;;;;;;;3.00;2.63;;;10.80;99.90;;;;;;5009075;28;20496;-47
2023/01/01 07:41:08;;;;;;;3.30;3.00;;;10.80;99.90;;;;;;5010039;28;20993;-45
2023/01/01 07:43:55;;;;;;;2.63;2.40;;;10.80;99.90;;;;;;5004834;28;20952;-46
2023/01/01 07:46:42;;;;;;;7.53;2.57;;;10.80;99.90;;;;;;4992643;28;20472;-45
2023/01/01 07:49:29;;;;;;;2.90;2.50;;;10.80;99.90;;;;;;5013774;28;20456;-46
2023/01/01 07:52:18;;;;;;;3.23;2.53;;;10.80;99.90;;;;;;5009288;28;20481;-46
2023/01/01 07:55:06;;;;;;;2.43;2.23;;;10.80;99.90;;;;;;4992916;28;20452;-47
2023/01/01 07:57:53;;;;;;;3.47;2.23;;;10.80;99.90;;;;;;5000841;28;20468;-46
2023/01/01 08:00:41;;;;;;;2.50;2.30;;;10.80;99.90;;;;;;4995104;28;20477;-48
2023/01/01 08:03:28;;;;;;;3.50;2.20;;;10.80;99.90;;;;;;5012315;28;20472;-47
2023/01/01 08:06:15;;;;;;;3.30;2.50;;;10.80;99.90;;;;;;4993714;28;20472;-44
2023/01/01 08:09:03;;;;;;;2.80;1.90;;;10.80;99.90;;;;;;4991008;28;20506;-46
2023/01/01 08:11:52;;;;;;;3.50;2.60;;;10.80;99.90;;;;;;4985456;28;20472;-47
2023/01/01 08:14:39;;;;;;;2.23;2.00;;;10.80;99.90;;;;;;5003650;28;20472;-45
2023/01/01 08:17:26;;;;;;;2.73;2.40;;;10.80;99.90;;;;;;5002586;28;20823;-46
2023/01/01 08:20:12;;;;;;;2.53;2.33;;;10.80;99.90;;;;;;5006750;28;20444;-46
2023/01/01 08:23:00;;;;;;;2.50;2.30;;;10.80;99.90;;;;;;4988960;28;20491;-48
2023/01/01 08:25:59;;;;;;;3.47;2.50;;;10.80;99.90;;;;;;5014495;28;20845;-43
2023/01/01 08:28:46;;;;;;;4.10;2.87;;;10.80;99.90;;;;;;5000002;28;20453;-45
2023/01/01 08:31:40;;;;;;;2.53;1.90;;;10.80;99.90;;;;;;5013642;28;20805;-44
2023/01/01 08:34:27;;;;;;;2.23;1.93;;;10.80;99.90;;;;;;5002599;28;20475;-45
2023/01/01 08:37:14;;;;;;;2.13;2.00;;;10.80;99.90;;;;;;4991837;28;21023;-47
2023/01/01 08:40:01;;;;;;;3.00;2.23;;;10.80;99.90;;;;;;4995385;28;20576;-44
2023/01/01 08:42:50;;;;;;;2.40;1.97;;;10.80;99.90;;;;;;5009949;28;20488;-47
2023/01/01 08:45:37;;;;;;;2.20;2.00;;;10.80;99.90;;;;;;5001491;28;20480;-47
2023/01/01 08:48:24;;;;;;;2.23;2.03;;;10.80;99.90;;;;;;5003202;28;20491;-47
2023/01/01 08:51:16;;;;;;;3.57;2.43;;;10.80;99.90;;;;;;5005059;28;20460;-47
2023/01/01 08:54:03;;;;;;;3.23;2.40;;;10.80;99.90;;;;;;5006219;28;20503;-47
2023/01/01 08:56:50;;;;;;;4.03;2.20;;;10.80;99.90;;;;;;5018590;28;20531;-46
2023/01/01 08:59:39;;;;;;;3.37;2.60;;;10.80;99.90;;;;;;5014901;28;20552;-46
2023/01/01 09:02:26;;;;;;;3.03;2.47;;;10.80;99.90;;;;;;5003230;28;20567;-46
2023/01/01 09:05:14;;;;;;;2.30;2.07;;;10.80;99.90;;;;;;5014283;28;20451;-46
2023/01/01 09:08:01;;;;;;;2.30;2.10;;;10.80;99.90;;;;;;5007567;28;21114;-47
2023/01/01 09:10:48;;;;;;;2.10;1.90;;;10.80;99.90;;;;;;5002718;28;20468;-46
2023/01/01 09:13:36;;;;;;;2.00;1.80;;;10.80;99.90;;;;;;5007255;28;20813;-46
2023/01/01 09:16:25;;;;;;;2.53;2.33;;;10.80;99.90;;;;;;5021678;28;20448;-46
2023/01/01 09:19:12;;;;;;;2.50;2.30;;;10.80;99.90;;;;;;5025319;28;20488;-46
2023/01/01 09:21:59;;;;;;;2.20;1.93;;;10.80;99.90;;;;;;5016883;28;20474;-45
2023/01/01 09:24:46;;;;;;;2.80;1.80;;;10.80;99.90;;;;;;4990982;28;20523;-45
2023/01/01 09:27:33;;;;;;;2.30;2.07;;;10.80;99.90;;;;;;4999081;28;20555;-46
2023/01/01 09:30:20;;;;;;;2.20;1.87;;;10.80;99.90;;;;;;4989571;28;21023;-46
2023/01/01 09:33:09;;;;;;;4.20;1.60;;;10.80;99.90;;;;;;5005469;28;20459;-46
2023/01/01 09:36:10;;;;;;;2.93;2.27;;;10.80;99.90;;;;;;5012295;28;20444;-46
2023/01/01 09:38:58;;;;;;;3.80;2.60;;;10.80;99.90;;;;;;4988995;28;20464;-45
2023/01/01 09:42:02;;;;;;;3.67;1.90;;;10.80;99.90;;;;;;4998826;28;20491;-47
2023/01/01 09:45:05;;;;;;;6.03;1.93;;;10.80;99.90;;;;;;5002158;28;20591;-46
2023/01/01 09:47:55;;;;;;;2.13;1.93;;;10.80;99.90;;;;;;4995824;28;20471;-47
2023/01/01 09:50:47;;;;;;;2.57;1.80;;;10.80;99.90;;;;;;4984650;28;20972;-46
2023/01/01 09:53:40;;;;;;;1.93;1.73;;;10.90;99.90;;;;;;4983660;28;20469;-46
2023/01/01 09:56:30;;;;;;;2.30;2.10;;;10.90;99.90;;;;;;4989515;28;20448;-47
2023/01/01 09:59:17;;;;;;;4.07;1.97;;;10.90;99.90;;;;;;5005637;28;20452;-46
2023/01/01 10:02:20;;;;;;;2.37;1.70;;;10.90;99.90;;;;;;4984865;28;20476;-46
2023/01/01 10:05:20;;;;;;;4.50;2.20;;;10.90;99.90;;;;;;4984235;28;20452;-46
2023/01/01 10:08:19;;;;;;;2.73;2.20;;;10.90;99.90;;;;;;4988381;28;20552;-46
2023/01/01 10:11:17;;;;;;;3.33;2.00;;;10.90;99.90;;;;;;4989438;28;20454;-47
2023/01/01 10:14:13;;;;;;;4.80;2.03;;;10.90;99.90;;;;;;5005894;28;20448;-46
2023/01/01 10:17:03;;;;;;;1.73;1.63;;;10.80;99.90;;;;;;4986191;28;20476;-46
2023/01/01 10:19:55;;;;;;;2.70;1.80;;;10.90;99.90;;;;;;4991096;28;20899;-47
2023/01/01 10:22:46;;;;;;;2.00;1.60;;;10.80;99.90;;;;;;4991408;28;20508;-45
2023/01/01 10:25:35;;;;;;;2.30;2.00;;;10.80;99.90;;;;;;4984752;28;20448;-46
2023/01/01 10:28:27;;;;;;;2.70;1.97;;;10.80;99.90;;;;;;5004365;28;20476;-47
2023/01/01 10:31:20;;;;;;;3.43;1.60;;;10.80;99.90;;;;;;4993263;28;20978;-45
2023/01/01 10:34:27;;;;;;;2.23;2.00;;;10.80;99.90;;;;;;4991422;28;21059;-47
2023/01/01 10:37:15;;;;;;;2.40;1.77;;;10.80;99.90;;;;;;4996483;28;20850;-48
2023/01/01 10:40:06;;;;;;;2.83;2.10;;;10.80;99.90;;;;;;4989215;28;20509;-45
2023/01/01 10:42:56;;;;;;;2.03;1.73;;;10.80;99.90;;;;;;4997582;28;20843;-47
2023/01/01 10:45:45;;;;;;;3.20;2.00;;;10.80;99.90;;;;;;4978644;28;20511;-47
2023/01/01 10:48:34;;;;;;;2.17;1.50;;;10.80;99.90;;;;;;4983176;28;20539;-47
2023/01/01 10:51:23;;;;;;;2.50;1.73;;;10.80;99.90;;;;;;5003522;28;20806;-46
2023/01/01 10:54:31;;;;;;;2.67;1.40;;;10.80;99.90;;;;;;4980849;28;20437;-47
2023/01/01 10:57:29;;;;;;;1.50;1.33;;;10.80;99.90;;;;;;5002580;28;20483;-47
2023/01/01 11:00:26;;;;;;;1.90;1.33;;;10.80;99.90;;;;;;5002528;28;20631;-46
2023/01/01 11:03:18;;;;;;;2.47;1.83;;;10.80;99.90;;;;;;5000020;28;20499;-48
2023/01/01 11:06:13;;;;;;;2.30;1.60;;;10.80;99.90;;;;;;4998584;28;20472;-46
2023/01/01 11:09:03;;;;;;;5.80;1.70;;;10.80;99.90;;;;;;5001284;28;20881;-47
2023/01/01 11:11:57;;;;;;;2.30;2.10;;;10.80;99.90;;;;;;4995936;28;20472;-46
2023/01/01 11:14:54;;;;;;;1.97;1.27;;;10.80;99.90;;;;;;4991844;28;20455;-47
2023/01/01 11:17:43;;;;;;;2.57;1.93;;;10.80;99.90;;;;;;5012221;28;20538;-46
2023/01/01 11:20:32;;;;;;;3.33;1.33;;;10.80;99.90;;;;;;4992397;28;20439;-47
2023/01/01 11:23:28;;;;;;;1.60;1.33;;;10.80;99.90;;;;;;4991440;28;20522;-46
2023/01/01 11:25:59;;;;;;;4.00;1.87;;;10.80;99.90;;;;;;4994812;28;20475;-48
2023/01/01 11:28:33;;;;;;;1.63;1.53;;;10.80;99.90;;;;;;4992270;28;21033;-46
2023/01/01 11:31:14;;;;;;;2.20;1.40;;;10.80;99.90;;;;;;4985140;28;20456;-48
2023/01/01 11:33:51;;;;;;;1.83;1.57;;;10.80;99.90;;;;;;5003117;28;20476;-46
2023/01/01 11:36:25;;;;;;;1.90;1.50;;;10.80;99.90;;;;;;5007979;28;20459;-46
2023/01/01 11:39:08;;;;;;;3.27;1.50;;;10.80;99.90;;;;;;4986849;28;20509;-46
2023/01/01 11:41:45;;;;;;;4.67;1.60;;;10.80;99.90;;;;;;5003933;28;20483;-47
2023/01/01 11:44:25;;;;;;;4.63;1.37;;;10.80;99.90;;;;;;5005498;28;20446;-46
2023/01/01 11:46:54;;;;;;;2.30;1.80;;;10.80;99.90;;;;;;4981120;28;20491;-47
2023/01/01 11:49:27;;;;;;;2.10;1.20;;;10.80;99.90;;;;;;4992559;28;20453;-46
2023/01/01 11:51:56;;;;;;;2.80;1.60;;;10.80;99.90;;;;;;4980087;28;20819;-47
2023/01/01 11:54:31;;;;;;;4.07;1.83;;;10.80;99.90;;;;;;4992577;28;20477;-46
2023/01/01 11:57:07;;;;;;;1.63;1.53;;;10.80;99.90;;;;;;4988686;28;20465;-47
2023/01/01 11:59:43;;;;;;;1.70;1.27;;;10.80;99.90;;;;;;4995829;28;20501;-46
2023/01/01 12:02:16;;;;;;;2.37;1.43;;;10.80;99.90;;;;;;4998937;28;20473;-47
2023/01/01 12:04:51;;;;;;;1.90;1.73;;;10.80;99.90;;;;;;5003492;28;20914;-47
2023/01/01 12:07:24;;;;;;;1.60;1.50;;;10.80;99.90;;;;;;5003308;28;20504;-46
2023/01/01 12:10:00;;;;;;;1.60;1.30;;;10.80;99.90;;;;;;4986497;28;20513;-46
2023/01/01 12:12:33;;;;;;;1.50;1.33;;;10.80;99.90;;;;;;4999461;28;20461;-48
2023/01/01 12:15:05;;;;;;;1.70;1.20;;;10.80;99.90;;;;;;4986473;28;20477;-46
2023/01/01 12:17:37;;;;;;;1.80;1.33;;;10.80;99.90;;;;;;5001494;28;20465;-48
2023/01/01 12:20:13;;;;;;;3.37;2.10;;;10.80;99.90;;;;;;5002756;28;20451;-46
2023/01/01 12:22:42;;;;;;;2.73;1.60;;;10.80;99.90;;;;;;4989298;28;20476;-46
2023/01/01 12:25:13;;;;;;;2.50;1.37;;;10.80;99.90;;;;;;4992068;28;20851;-47
2023/01/01 12:27:56;;;;;;;1.97;1.23;;;10.80;99.90;;;;;;4990570;28;20989;-47
2023/01/01 12:30:31;;;;;;;1.43;1.33;;;10.80;99.90;;;;;;5004347;28;21015;-46
2023/01/01 12:33:26;;;;;;;2.83;1.40;;;10.80;99.90;;;;;;5004834;28;20456;-45
2023/01/01 12:36:19;;;;;;;1.30;1.10;;;10.80;99.90;;;;;;4982022;28;20445;-46
2023/01/01 12:39:38;;;;;;;3.17;1.80;;;10.80;99.90;;;;;;5001330;28;20461;-46
2023/01/01 12:42:16;;;;;;;1.50;1.30;;;10.80;99.90;;;;;;5006421;28;21212;-47
2023/01/01 12:45:10;;;;;;;1.33;1.23;;;10.80;99.90;;;;;;4981091;28;20452;-46
2023/01/01 12:47:47;;;;;;;2.03;1.77;;;10.80;99.90;;;;;;4973048;28;20528;-47
2023/01/01 12:50:28;;;;;;;1.40;1.30;;;10.80;99.90;;;;;;4994463;28;20441;-46
2023/01/01 12:53:06;;;;;;;1.73;1.60;;;10.80;99.90;;;;;;4999203;28;20477;-45
2023/01/01 12:56:16;;;;;;;1.60;1.30;;;10.80;99.90;;;;;;4984105;28;20982;-46
2023/01/01 12:58:55;;;;;;;3.60;1.07;;;10.80;99.90;;;;;;4928305;29;20495;-47
2023/01/01 13:01:27;;;;;;;3.10;1.47;;;10.80;99.90;;;;;;4938204;28;20487;-46
2023/01/01 13:04:05;;;;;;;1.77;1.40;;;10.80;99.90;;;;;;4961688;28;20446;-45
2023/01/01 13:06:38;;;;;;;1.73;1.20;;;10.80;99.90;;;;;;4980663;28;21026;-47
2023/01/01 13:09:13;;;;;;;2.93;1.50;;;10.80;99.90;;;;;;4986210;28;20481;-47
2023/01/01 13:11:43;;;;;;;1.60;1.50;;;10.80;99.90;;;;;;5010163;28;20952;-46
2023/01/01 13:14:13;;;;;;;2.50;1.40;;;10.80;99.90;;;;;;4993137;28;20440;-46
2023/01/01 13:16:42;;;;;;;1.50;1.20;;;10.80;99.90;;;;;;4996147;28;20501;-46
2023/01/01 13:19:26;;;;;;;1.77;1.40;;;10.80;99.90;;;;;;5005123;28;20822;-47
2023/01/01 13:21:54;;;;;;;2.07;1.53;;;10.80;99.90;;;;;;4991234;28;20445;-47
2023/01/01 13:24:26;;;;;;;1.27;1.17;;;10.90;99.90;;;;;;4982184;28;20445;-47
2023/01/01 13:26:54;;;;;;;2.03;1.40;;;10.80;99.90;;;;;;5005634;28;20908;-45
2023/01/01 13:29:45;;;;;;;1.30;1.00;;;10.80;99.90;;;;;;5004597;28;20476;-47
2023/01/01 13:32:15;;;;;;;2.23;1.47;;;10.80;99.90;;;;;;5002658;28;20833;-46
2023/01/01 13:35:15;;;;;;;1.30;1.20;;;10.90;99.90;;;;;;4989820;28;20805;-46
2023/01/01 13:37:48;;;;;;;1.20;1.00;;;10.90;99.90;;;;;;4997846;28;21047;-46
2023/01/01 13:40:33;;;;;;;1.37;1.23;;;10.90;99.90;;;;;;4992556;28;20536;-47
2023/01/01 13:43:07;;;;;;;2.33;1.43;;;10.90;99.90;;;;;;5000382;28;20846;-46
2023/01/01 13:45:38;;;;;;;1.57;1.47;;;10.90;99.90;;;;;;4997767;28;20446;-47
2023/01/01 13:48:46;;;;;;;1.33;1.23;;;10.90;99.90;;;;;;4982527;28;20565;-46
2023/01/01 13:51:35;;;;;;;1.30;1.20;;;10.90;99.90;;;;;;5004764;28;20437;-46
2023/01/01 13:54:55;;;;;;;1.73;1.47;;;10.80;99.90;;;;;;4993444;28;20448;-45
2023/01/01 13:57:46;;;;;;;1.47;1.20;;;10.90;99.90;;;;;;4985468;28;20528;-48
2023/01/01 14:00:21;;;;;;;1.37;1.20;;;10.90;99.90;;;;;;4980239;28;20957;-47
2023/01/01 14:02:59;;;;;;;1.30;0.87;;;10.90;99.90;;;;;;4988965;28;20545;-46
2023/01/01 14:05:35;;;;;;;1.63;1.50;;;10.80;99.90;;;;;;4989020;28;20449;-46
2023/01/01 14:08:04;;;;;;;1.57;1.30;;;10.90;99.90;;;;;;4973449;28;20468;-48
2023/01/01 14:10:49;;;;;;;1.47;1.37;;;10.80;99.90;;;;;;5006324;28;20455;-47
2023/01/01 14:13:26;;;;;;;1.13;1.03;;;10.90;99.90;;;;;;4986600;28;20469;-46
2023/01/01 14:16:00;;;;;;;1.13;1.00;;;10.90;99.90;;;;;;4976650;28;20450;-46
2023/01/01 14:18:34;;;;;;;1.90;1.43;;;10.90;99.90;;;;;;4981513;28;20470;-47
2023/01/01 14:21:07;;;;;;;1.57;1.27;;;10.90;99.90;;;;;;4992536;28;20988;-47
2023/01/01 14:23:40;;;;;;;1.90;0.87;;;10.80;99.90;;;;;;5006109;28;20445;-46